Hill West, Vermont
Current Conditions -  °F | °C
As of 7:35 AM on Sunday 23 Nov 2014 (Local Time) from KFSO Reporting Station
Drizzle Drizzle  
Wind Chill: 38°   Ceiling: 1500
Heat Index: 38°   Visibility: 2mi
Dew Point: 37°   Wind: 3mph
Humidity: 96%   Direction: 190°S
Pressure: 30.02"   Gusts: NA
Location:  44.8764°N, 72.758°W
Report Text: KFSO 231235Z AUTO 19003KT 2SM -DZ OVC015 04/03 A3002 RMK AO2 T00360030
Loading
Personal Weather Stations






























Interactive Weather Map New forecast layout! Learn more

10-Day Weather Forecast

Advertisements
Track Severe Weather on mobile